ADDS METAR Data INFO
IDs: Format: Raw Decoded Include TAF

Data at: 2222 UTC 24 Jun 2018

KMTO 242153Z AUTO 06006KT 10SM CLR 27/19 A2994 RMK AO2 SLP133 T02720194
KMTO 242053Z AUTO VRB03KT 10SM SCT038 28/19 A2998 RMK AO2 SLP145 T02780194 50001
KMTO 241953Z AUTO 05004KT 10SM FEW036 28/19 A2998 RMK AO2 SLP147 T02780194
KMTO 241853Z AUTO 00000KT 10SM SCT035 27/19 A2997 RMK AO2 SLP145 T02670189
KMTO 241753Z AUTO 27003KT 10SM CLR 27/19 A2997 RMK AO2 SLP143 T02670194 10272 20200 50004
KMTO 241653Z AUTO VRB03KT 10SM CLR 26/18 A2997 RMK AO2 SLP145 T02560183
KMTO 241553Z AUTO 00000KT 10SM CLR 26/19 A2996 RMK AO2 SLP141 T02560189
KMTO 241453Z AUTO VRB04KT 9SM CLR 24/19 A2996 RMK AO2 SLP140 T02440189 51020
KMTO 241353Z AUTO VRB03KT 10SM CLR 23/19 A2996 RMK AO2 SLP140 T02330189
KMTO 241253Z AUTO 29003KT 10SM CLR 22/19 A2994 RMK AO2 SLP133 T02170189
KMTO 241153Z AUTO 34004KT 7SM CLR 20/19 A2990 RMK AO2 SLP120 70001 T02000189 10200 20167 51014
KMTO 241053Z AUTO 00000KT 5SM BR CLR 18/17 A2989 RMK AO2 SLP116 T01780172
KMTO 240953Z AUTO 00000KT 8SM CLR 18/18 A2989 RMK AO2 SLP117 T01780178
KMTO 240853Z AUTO 00000KT 6SM BR CLR 18/18 A2986 RMK AO2 SLP107 T01830183 53001
KMTO 240820Z AUTO 00000KT 8SM SCT028 18/18 A2986 RMK AO2 T01830183
KMTO 240753Z AUTO 00000KT 5SM BR BKN028 18/18 A2986 RMK AO2 SLP107 T01830183
KMTO 240735Z AUTO 00000KT 6SM BR BKN028 18/18 A2986 RMK AO2 T01830183
KMTO 240653Z AUTO 00000KT 7SM CLR 18/18 A2985 RMK AO2 SLP103 T01830183
KMTO 240553Z AUTO 00000KT 9SM BKN034 19/19 A2986 RMK AO2 SLP105 T01940189 10239 20189 402500178 53009
KMTO 240453Z AUTO 00000KT 10SM BKN080 19/19 A2985 RMK AO2 SLP102 T01940189
KMTO 240353Z AUTO 00000KT 10SM OVC080 20/19 A2984 RMK AO2 SLP100 T02000194
KMTO 240253Z AUTO 30004KT 10SM CLR 20/18 A2983 RMK AO2 SLP097 T02000183 53011
KMTO 240153Z AUTO 00000KT 10SM SCT027 BKN070 21/19 A2981 RMK AO2 SLP091 T02110189
KMTO 240143Z AUTO 00000KT 10SM BKN028 BKN070 22/19 A2981 RMK AO2 T02170194
KMTO 240053Z AUTO 00000KT 10SM CLR 22/19 A2980 RMK AO2 SLP088 T02220189
KMTO 232353Z AUTO 25004KT 10SM FEW080 24/18 A2980 RMK AO2 SLP085 T02390183 10250 20222 55002
KMTO 232253Z AUTO 23005KT 10SM BKN080 24/19 A2979 RMK AO2 SLP082 T02390189
KMTO 232153Z AUTO 23006KT 10SM FEW055 OVC075 23/19 A2981 RMK AO2 SLP089 T02280194
KMTO 232053Z AUTO 24006KT 10SM OVC065 23/19 A2980 RMK AO2 SLP086 T02330189 53003
KMTO 231953Z AUTO 25007KT 10SM SCT033 SCT049 OVC065 24/18 A2979 RMK AO2 SLP083 T02390183
KMTO 231853Z AUTO VRB05KT 10SM SCT029 BKN041 OVC060 23/18 A2978 RMK AO2 SLP080 T02330183
KMTO 231753Z AUTO 23005KT 10SM FEW026 BKN039 OVC046 22/18 A2979 RMK AO2 SLP084 60001 T02220178 10233 20178 55000
KMTO 231711Z AUTO 29003KT 10SM SCT023 BKN030 BKN040 23/18 A2978 RMK AO2 T02280183
KMTO 231703Z AUTO VRB03KT 10SM SCT022 BKN027 OVC042 22/18 A2979 RMK AO2 T02220178
KMTO 231653Z AUTO VRB05KT 10SM SCT024 BKN032 BKN040 23/19 A2979 RMK AO2 SLP081 T02280189
KMTO 231628Z AUTO 25006KT 10SM FEW029 OVC040 22/18 A2980 RMK AO2 T02220178
KMTO 231553Z AUTO 27005KT 10SM BKN019 21/17 A2979 RMK AO2 SLP085 T02110172
KMTO 231515Z AUTO 27004KT 10SM BKN016 BKN021 OVC042 21/17 A2979 RMK AO2 T02060172
KMTO 231453Z AUTO 25006KT 10SM OVC041 21/17 A2979 RMK AO2 SLP084 60001 T02060172 50007
KMTO 231353Z AUTO 28007KT 10SM FEW012 OVC042 20/18 A2980 RMK AO2 SLP086 P0001 T02000178
KMTO 231253Z AUTO 28007KT 10SM OVC035 19/18 A2979 RMK AO2 RAB1155E51 SLP084 P0000 T01890178
KMTO 231231Z AUTO 24006KT 9SM -RA FEW024 OVC033 18/18 A2980 RMK AO2 RAB1155 P0000 T01830178
KMTO 231216Z AUTO 25004KT 5SM -RA BR FEW012 BKN024 OVC033 18/18 A2979 RMK AO2 RAB1155 P0000 T01780178
KMTO 231209Z AUTO 24005KT 2 1/2SM -RA BR FEW008 BKN024 OVC028 18/18 A2978 RMK AO2 RAB1155 P0000 T01830178
KMTO 231159Z AUTO 23005KT 2 1/2SM -RA BR SCT008 BKN013 OVC022 18/18 A2978 RMK AO2 RAB55 P0000 T01830178
KMTO 231153Z AUTO 22004KT 3SM BR BKN009 OVC013 18/18 A2977 RMK AO2 CIG 006V010 SLP077 70055 T01830178 10189 20178 53009
KMTO 231053Z AUTO 30005KT 6SM BR BKN008 OVC014 18/18 A2975 RMK AO2 CIG 005V009 SLP071 T01830178
KMTO 231046Z AUTO 31006KT 5SM BR BKN006 OVC014 18/18 A2975 RMK AO2 CIG 005V009 T01830178
KMTO 231030Z AUTO 00000KT 5SM BR SCT009 BKN014 OVC037 19/18 A2975 RMK AO2 T01890183